sensor_id;sensor_type;location;lat;lon;timestamp;P1;durP1;ratioP1;P2;durP2;ratioP2
6424;SDS011;12193;42.642;23.384;2022-10-13T04:08:21;19.40;;;11.53;;
6424;SDS011;12193;42.642;23.384;2022-10-13T04:10:56;19.70;;;11.77;;
6424;SDS011;12193;42.642;23.384;2022-10-13T04:13:26;22.30;;;11.53;;
6424;SDS011;12193;42.642;23.384;2022-10-13T04:16:00;19.70;;;11.43;;
6424;SDS011;12193;42.642;23.384;2022-10-13T04:18:30;19.70;;;10.77;;
6424;SDS011;12193;42.642;23.384;2022-10-13T04:20:59;21.17;;;10.23;;
6424;SDS011;12193;42.642;23.384;2022-10-13T04:23:32;20.03;;;11.10;;
6424;SDS011;12193;42.642;23.384;2022-10-13T04:26:01;21.83;;;10.80;;
6424;SDS011;12193;42.642;23.384;2022-10-13T04:28:30;15.20;;;8.93;;
6424;SDS011;12193;42.642;23.384;2022-10-13T04:31:02;16.53;;;8.30;;
6424;SDS011;12193;42.642;23.384;2022-10-13T04:33:31;16.50;;;9.17;;
6424;SDS011;12193;42.642;23.384;2022-10-13T04:36:02;14.33;;;9.37;;
6424;SDS011;12193;42.642;23.384;2022-10-13T04:38:34;22.17;;;10.60;;
6424;SDS011;12193;42.642;23.384;2022-10-13T04:41:04;22.17;;;10.73;;
6424;SDS011;12193;42.642;23.384;2022-10-13T04:43:34;18.03;;;10.53;;
6424;SDS011;12193;42.642;23.384;2022-10-13T04:46:04;19.80;;;10.30;;
6424;SDS011;12193;42.642;23.384;2022-10-13T04:48:35;17.43;;;10.57;;
6424;SDS011;12193;42.642;23.384;2022-10-13T04:51:06;16.67;;;10.37;;
6424;SDS011;12193;42.642;23.384;2022-10-13T04:53:39;18.13;;;10.60;;
6424;SDS011;12193;42.642;23.384;2022-10-13T04:56:09;18.57;;;9.77;;
6424;SDS011;12193;42.642;23.384;2022-10-13T04:58:40;23.10;;;11.50;;
6424;SDS011;12193;42.642;23.384;2022-10-13T05:01:11;19.87;;;11.67;;
6424;SDS011;12193;42.642;23.384;2022-10-13T05:03:42;23.50;;;12.27;;
6424;SDS011;12193;42.642;23.384;2022-10-13T05:06:14;21.97;;;12.27;;
6424;SDS011;12193;42.642;23.384;2022-10-13T05:08:47;21.73;;;12.17;;
6424;SDS011;12193;42.642;23.384;2022-10-13T05:11:16;26.30;;;12.77;;
6424;SDS011;12193;42.642;23.384;2022-10-13T05:13:47;21.93;;;12.77;;
6424;SDS011;12193;42.642;23.384;2022-10-13T05:16:17;22.00;;;12.87;;
6424;SDS011;12193;42.642;23.384;2022-10-13T05:18:47;24.53;;;11.50;;
6424;SDS011;12193;42.642;23.384;2022-10-13T05:21:18;20.70;;;12.17;;
6424;SDS011;12193;42.642;23.384;2022-10-13T05:23:51;19.97;;;11.83;;
6424;SDS011;12193;42.642;23.384;2022-10-13T05:26:21;20.40;;;12.03;;
6424;SDS011;12193;42.642;23.384;2022-10-13T05:28:53;28.80;;;14.40;;
6424;SDS011;12193;42.642;23.384;2022-10-13T05:31:23;34.10;;;16.37;;
6424;SDS011;12193;42.642;23.384;2022-10-13T05:33:54;28.33;;;15.63;;
6424;SDS011;12193;42.642;23.384;2022-10-13T05:36:24;31.63;;;15.93;;
6424;SDS011;12193;42.642;23.384;2022-10-13T05:38:59;30.37;;;15.77;;
6424;SDS011;12193;42.642;23.384;2022-10-13T05:41:30;29.80;;;16.30;;
6424;SDS011;12193;42.642;23.384;2022-10-13T05:44:00;32.70;;;16.10;;
6424;SDS011;12193;42.642;23.384;2022-10-13T05:46:30;28.93;;;16.27;;
6424;SDS011;12193;42.642;23.384;2022-10-13T05:49:00;30.90;;;16.13;;
6424;SDS011;12193;42.642;23.384;2022-10-13T05:51:31;31.40;;;15.90;;
6424;SDS011;12193;42.642;23.384;2022-10-13T05:54:06;26.57;;;15.83;;
6424;SDS011;12193;42.642;23.384;2022-10-13T05:56:38;29.00;;;16.20;;
6424;SDS011;12193;42.642;23.384;2022-10-13T05:59:12;28.50;;;15.43;;
6424;SDS011;12193;42.642;23.384;2022-10-13T06:01:45;33.83;;;15.83;;
6424;SDS011;12193;42.642;23.384;2022-10-13T06:04:16;31.60;;;15.97;;
6424;SDS011;12193;42.642;23.384;2022-10-13T06:06:49;34.23;;;16.50;;
6424;SDS011;12193;42.642;23.384;2022-10-13T06:09:21;33.40;;;16.37;;
6424;SDS011;12193;42.642;23.384;2022-10-13T06:11:50;38.13;;;17.20;;
6424;SDS011;12193;42.642;23.384;2022-10-13T06:14:20;37.60;;;17.40;;
6424;SDS011;12193;42.642;23.384;2022-10-13T06:16:49;33.57;;;17.93;;
6424;SDS011;12193;42.642;23.384;2022-10-13T06:19:18;36.57;;;18.67;;
6424;SDS011;12193;42.642;23.384;2022-10-13T06:21:47;39.37;;;19.00;;
6424;SDS011;12193;42.642;23.384;2022-10-13T06:24:16;34.90;;;18.30;;
6424;SDS011;12193;42.642;23.384;2022-10-13T06:26:49;62.10;;;19.30;;
6424;SDS011;12193;42.642;23.384;2022-10-13T06:29:18;43.93;;;17.77;;
6424;SDS011;12193;42.642;23.384;2022-10-13T06:31:47;50.03;;;18.10;;
6424;SDS011;12193;42.642;23.384;2022-10-13T06:34:16;44.03;;;18.30;;
6424;SDS011;12193;42.642;23.384;2022-10-13T06:36:46;34.50;;;17.67;;
6424;SDS011;12193;42.642;23.384;2022-10-13T06:39:15;26.60;;;16.70;;
6424;SDS011;12193;42.642;23.384;2022-10-13T06:41:44;30.97;;;17.37;;
6424;SDS011;12193;42.642;23.384;2022-10-13T06:44:16;30.57;;;16.67;;
6424;SDS011;12193;42.642;23.384;2022-10-13T06:46:45;28.57;;;16.10;;
6424;SDS011;12193;42.642;23.384;2022-10-13T06:49:15;28.73;;;15.43;;
6424;SDS011;12193;42.642;23.384;2022-10-13T06:51:44;29.13;;;15.10;;
6424;SDS011;12193;42.642;23.384;2022-10-13T06:54:14;30.00;;;15.43;;
6424;SDS011;12193;42.642;23.384;2022-10-13T06:56:44;24.57;;;14.80;;
6424;SDS011;12193;42.642;23.384;2022-10-13T06:59:15;28.03;;;14.73;;
6424;SDS011;12193;42.642;23.384;2022-10-13T07:01:46;22.60;;;12.93;;
6424;SDS011;12193;42.642;23.384;2022-10-13T07:04:16;29.83;;;14.70;;
6424;SDS011;12193;42.642;23.384;2022-10-13T07:06:45;24.50;;;13.90;;
6424;SDS011;12193;42.642;23.384;2022-10-13T07:09:15;24.43;;;13.73;;
6424;SDS011;12193;42.642;23.384;2022-10-13T07:11:45;25.20;;;14.47;;
6424;SDS011;12193;42.642;23.384;2022-10-13T07:14:17;19.60;;;11.37;;
6424;SDS011;12193;42.642;23.384;2022-10-13T07:16:47;19.07;;;10.57;;
6424;SDS011;12193;42.642;23.384;2022-10-13T07:19:16;20.40;;;10.13;;
6424;SDS011;12193;42.642;23.384;2022-10-13T07:21:46;16.10;;;9.80;;
6424;SDS011;12193;42.642;23.384;2022-10-13T07:24:15;15.03;;;9.60;;
6424;SDS011;12193;42.642;23.384;2022-10-13T07:26:44;16.47;;;10.03;;
6424;SDS011;12193;42.642;23.384;2022-10-13T07:29:13;14.37;;;9.83;;
6424;SDS011;12193;42.642;23.384;2022-10-13T07:31:46;15.53;;;9.60;;
6424;SDS011;12193;42.642;23.384;2022-10-13T07:34:15;26.47;;;15.40;;
6424;SDS011;12193;42.642;23.384;2022-10-13T07:36:44;27.83;;;16.63;;
6424;SDS011;12193;42.642;23.384;2022-10-13T07:39:14;29.23;;;16.43;;
6424;SDS011;12193;42.642;23.384;2022-10-13T07:41:43;29.13;;;15.60;;
6424;SDS011;12193;42.642;23.384;2022-10-13T07:44:12;28.50;;;16.13;;
6424;SDS011;12193;42.642;23.384;2022-10-13T07:46:44;32.40;;;17.97;;
6424;SDS011;12193;42.642;23.384;2022-10-13T07:49:13;34.93;;;17.47;;
6424;SDS011;12193;42.642;23.384;2022-10-13T07:51:43;30.67;;;17.43;;
6424;SDS011;12193;42.642;23.384;2022-10-13T07:54:12;28.00;;;16.93;;
6424;SDS011;12193;42.642;23.384;2022-10-13T07:56:43;34.30;;;17.97;;
6424;SDS011;12193;42.642;23.384;2022-10-13T07:59:13;31.80;;;17.00;;
6424;SDS011;12193;42.642;23.384;2022-10-13T08:01:44;40.67;;;18.50;;
6424;SDS011;12193;42.642;23.384;2022-10-13T08:04:14;31.17;;;16.70;;
6424;SDS011;12193;42.642;23.384;2022-10-13T08:06:43;30.47;;;16.33;;
6424;SDS011;12193;42.642;23.384;2022-10-13T08:09:12;31.97;;;17.63;;
6424;SDS011;12193;42.642;23.384;2022-10-13T08:11:42;32.40;;;16.80;;
6424;SDS011;12193;42.642;23.384;2022-10-13T08:14:11;28.70;;;17.43;;
6424;SDS011;12193;42.642;23.384;2022-10-13T08:16:41;38.80;;;18.57;;
6424;SDS011;12193;42.642;23.384;2022-10-13T08:19:13;31.90;;;17.77;;
6424;SDS011;12193;42.642;23.384;2022-10-13T08:21:44;33.07;;;16.83;;
6424;SDS011;12193;42.642;23.384;2022-10-13T08:24:14;29.03;;;16.73;;
6424;SDS011;12193;42.642;23.384;2022-10-13T08:26:47;27.77;;;16.63;;
6424;SDS011;12193;42.642;23.384;2022-10-13T08:29:17;41.33;;;17.93;;
6424;SDS011;12193;42.642;23.384;2022-10-13T08:31:46;34.77;;;16.47;;
6424;SDS011;12193;42.642;23.384;2022-10-13T08:34:18;37.97;;;16.60;;
6424;SDS011;12193;42.642;23.384;2022-10-13T08:36:48;27.87;;;16.73;;
6424;SDS011;12193;42.642;23.384;2022-10-13T08:39:19;27.27;;;17.37;;
6424;SDS011;12193;42.642;23.384;2022-10-13T08:41:49;30.53;;;17.30;;
6424;SDS011;12193;42.642;23.384;2022-10-13T08:44:20;27.60;;;16.63;;
6424;SDS011;12193;42.642;23.384;2022-10-13T08:46:55;31.40;;;16.83;;
6424;SDS011;12193;42.642;23.384;2022-10-13T08:49:32;29.03;;;16.20;;
6424;SDS011;12193;42.642;23.384;2022-10-13T08:52:02;29.67;;;17.00;;
6424;SDS011;12193;42.642;23.384;2022-10-13T08:54:32;24.47;;;15.10;;
6424;SDS011;12193;42.642;23.384;2022-10-13T08:57:01;30.57;;;16.37;;
6424;SDS011;12193;42.642;23.384;2022-10-13T08:59:31;25.40;;;14.63;;
6424;SDS011;12193;42.642;23.384;2022-10-13T09:02:00;26.13;;;14.70;;
6424;SDS011;12193;42.642;23.384;2022-10-13T09:04:41;27.13;;;15.47;;
6424;SDS011;12193;42.642;23.384;2022-10-13T09:07:15;29.20;;;16.93;;
6424;SDS011;12193;42.642;23.384;2022-10-13T09:09:48;28.63;;;15.33;;
6424;SDS011;12193;42.642;23.384;2022-10-13T09:12:19;22.37;;;14.43;;
6424;SDS011;12193;42.642;23.384;2022-10-13T09:14:57;27.43;;;15.07;;
6424;SDS011;12193;42.642;23.384;2022-10-13T09:17:30;26.43;;;14.50;;
6424;SDS011;12193;42.642;23.384;2022-10-13T09:20:04;28.97;;;15.47;;
6424;SDS011;12193;42.642;23.384;2022-10-13T09:22:36;27.70;;;14.40;;
6424;SDS011;12193;42.642;23.384;2022-10-13T09:25:14;25.67;;;13.17;;
6424;SDS011;12193;42.642;23.384;2022-10-13T09:27:47;25.43;;;12.83;;
6424;SDS011;12193;42.642;23.384;2022-10-13T09:30:26;23.83;;;12.17;;
6424;SDS011;12193;42.642;23.384;2022-10-13T09:36:12;21.67;;;12.93;;
6424;SDS011;12193;42.642;23.384;2022-10-13T09:38:43;25.37;;;13.30;;
6424;SDS011;12193;42.642;23.384;2022-10-13T09:41:33;23.07;;;12.77;;
6424;SDS011;12193;42.642;23.384;2022-10-13T09:44:07;22.37;;;12.73;;
6424;SDS011;12193;42.642;23.384;2022-10-13T09:46:44;20.60;;;11.43;;
6424;SDS011;12193;42.642;23.384;2022-10-13T09:49:28;28.77;;;13.07;;
6424;SDS011;12193;42.642;23.384;2022-10-13T09:52:05;19.93;;;11.43;;
6424;SDS011;12193;42.642;23.384;2022-10-13T09:54:43;20.93;;;11.10;;
6424;SDS011;12193;42.642;23.384;2022-10-13T09:57:23;20.13;;;11.63;;
6424;SDS011;12193;42.642;23.384;2022-10-13T10:00:01;18.27;;;11.23;;
6424;SDS011;12193;42.642;23.384;2022-10-13T10:02:36;21.33;;;10.83;;
6424;SDS011;12193;42.642;23.384;2022-10-13T10:05:14;20.30;;;10.60;;
6424;SDS011;12193;42.642;23.384;2022-10-13T10:07:54;16.40;;;10.13;;
6424;SDS011;12193;42.642;23.384;2022-10-13T10:10:29;19.37;;;10.30;;
6424;SDS011;12193;42.642;23.384;2022-10-13T10:13:02;23.17;;;10.33;;
6424;SDS011;12193;42.642;23.384;2022-10-13T10:15:35;17.10;;;9.93;;
6424;SDS011;12193;42.642;23.384;2022-10-13T10:18:11;18.80;;;9.20;;
6424;SDS011;12193;42.642;23.384;2022-10-13T10:20:47;15.43;;;9.67;;
6424;SDS011;12193;42.642;23.384;2022-10-13T10:23:30;15.80;;;9.27;;
6424;SDS011;12193;42.642;23.384;2022-10-13T10:26:09;16.93;;;9.13;;
6424;SDS011;12193;42.642;23.384;2022-10-13T10:28:45;14.27;;;8.97;;
6424;SDS011;12193;42.642;23.384;2022-10-13T10:31:25;14.47;;;9.07;;
6424;SDS011;12193;42.642;23.384;2022-10-13T10:34:06;14.70;;;8.70;;
6424;SDS011;12193;42.642;23.384;2022-10-13T10:36:52;18.93;;;9.13;;
6424;SDS011;12193;42.642;23.384;2022-10-13T10:39:35;20.40;;;9.40;;
6424;SDS011;12193;42.642;23.384;2022-10-13T10:42:10;18.43;;;9.50;;
6424;SDS011;12193;42.642;23.384;2022-10-13T10:45:13;19.40;;;9.53;;
6424;SDS011;12193;42.642;23.384;2022-10-13T10:47:45;16.63;;;9.13;;
6424;SDS011;12193;42.642;23.384;2022-10-13T10:50:19;13.73;;;8.63;;
6424;SDS011;12193;42.642;23.384;2022-10-13T10:52:52;15.10;;;8.57;;
6424;SDS011;12193;42.642;23.384;2022-10-13T10:55:31;20.43;;;9.43;;
6424;SDS011;12193;42.642;23.384;2022-10-13T10:58:10;14.53;;;9.10;;
